Pays
Station

 

Conditions  météo  pour  Vestmannaeyjar  -  Islande    Islande

  
12 °C
    
 
 

METAR pour Vestmannaeyjar :

BIVM 231700Z 12022KT 9999 FEW015 12/10 Q1009

 

Voici le bulletin pour Vestmannaeyjar - Islande.
 
Le bulletin a été fait il y a 44 minutes, à 17:00 UTC .
Le vent soufflait à la vitesse de 11.3 mètres par seconde de Est/Sud-est (120°).
 
La température était de 12 °C, avec un point de rosée à 10 °C.
La pression atmosphérique était de 1009 hPa.
L'humidité relative était de 87.6%.
 
Il y avait 1 à 2/8ème de nébulosité à une hauteur de 457 mètres.
 
La visibilité globale était de supérieure à 10 kilomètres.
 

 
 
 

Pays :   A   B   C   D   E   F   G   H   I   J   K   L   M   N   O   P   Q   R   S   T   U   V   W   Y   Z

 

Partenaires :  Info Météo avec Met'info
Météo Marine avec MeteoMarine.net
Infos Site  |  Infos Légales  |  Crédits  |  Confidentialité
Contactez-nous  |  Ajouter aux favoris
© 2013-2019 METAR - Tous droits réservés